sensor_id;sensor_type;location;lat;lon;timestamp;pressure;altitude;pressure_sealevel;temperature;humidity
113;BME280;45999;48.808;9.182;2023-04-07T00:01:12;98116.97;;;6.53;nan
113;BME280;45999;48.808;9.182;2023-04-07T00:03:38;98120.63;;;6.52;nan
113;BME280;45999;48.808;9.182;2023-04-07T00:06:06;98115.41;;;6.58;nan
113;BME280;45999;48.808;9.182;2023-04-07T00:08:32;98119.00;;;6.51;nan
113;BME280;45999;48.808;9.182;2023-04-07T00:10:58;98111.66;;;6.46;nan
113;BME280;45999;48.808;9.182;2023-04-07T00:13:25;98110.44;;;6.49;nan
113;BME280;45999;48.808;9.182;2023-04-07T00:15:51;98103.91;;;6.45;nan
113;BME280;45999;48.808;9.182;2023-04-07T00:18:18;98111.84;;;6.45;nan
113;BME280;45999;48.808;9.182;2023-04-07T00:20:44;98098.25;;;6.48;nan
113;BME280;45999;48.808;9.182;2023-04-07T00:23:10;98100.06;;;6.47;nan
113;BME280;45999;48.808;9.182;2023-04-07T00:25:37;98099.81;;;6.42;nan
113;BME280;45999;48.808;9.182;2023-04-07T00:28:03;98092.09;;;6.41;nan
113;BME280;45999;48.808;9.182;2023-04-07T00:30:29;98081.53;;;6.41;nan
113;BME280;45999;48.808;9.182;2023-04-07T00:32:56;98081.53;;;6.41;nan
113;BME280;45999;48.808;9.182;2023-04-07T00:35:22;98085.84;;;6.42;nan
113;BME280;45999;48.808;9.182;2023-04-07T00:37:49;98082.34;;;6.41;nan
113;BME280;45999;48.808;9.182;2023-04-07T00:40:16;98073.84;;;6.46;nan
113;BME280;45999;48.808;9.182;2023-04-07T00:42:42;98074.88;;;6.45;nan
113;BME280;45999;48.808;9.182;2023-04-07T00:45:09;98070.97;;;6.41;nan
113;BME280;45999;48.808;9.182;2023-04-07T00:47:37;98076.25;;;6.41;nan
113;BME280;45999;48.808;9.182;2023-04-07T00:50:03;98074.63;;;6.40;nan
113;BME280;45999;48.808;9.182;2023-04-07T00:52:32;98071.41;;;6.44;nan
113;BME280;45999;48.808;9.182;2023-04-07T00:54:59;98066.19;;;6.51;nan
113;BME280;45999;48.808;9.182;2023-04-07T00:57:25;98061.66;;;6.45;nan
113;BME280;45999;48.808;9.182;2023-04-07T00:59:52;98053.97;;;6.50;nan
113;BME280;45999;48.808;9.182;2023-04-07T01:03:08;98048.59;;;6.37;nan
113;BME280;45999;48.808;9.182;2023-04-07T01:05:30;98039.50;;;6.39;nan
113;BME280;45999;48.808;9.182;2023-04-07T01:14:09;98034.50;;;6.51;nan
113;BME280;45999;48.808;9.182;2023-04-07T01:16:44;98032.75;;;6.37;nan
113;BME280;45999;48.808;9.182;2023-04-07T01:22:00;98032.38;;;6.40;nan
113;BME280;45999;48.808;9.182;2023-04-07T01:29:53;98026.72;;;6.43;nan
113;BME280;45999;48.808;9.182;2023-04-07T01:32:20;98017.94;;;6.36;nan
113;BME280;45999;48.808;9.182;2023-04-07T01:34:49;98016.91;;;6.37;nan
113;BME280;45999;48.808;9.182;2023-04-07T01:37:17;98012.47;;;6.37;nan
113;BME280;45999;48.808;9.182;2023-04-07T01:39:44;98018.00;;;6.49;nan
113;BME280;45999;48.808;9.182;2023-04-07T01:42:11;98013.78;;;6.54;nan
113;BME280;45999;48.808;9.182;2023-04-07T01:44:38;98011.72;;;6.50;nan
113;BME280;45999;48.808;9.182;2023-04-07T01:47:05;98008.63;;;6.40;nan
113;BME280;45999;48.808;9.182;2023-04-07T01:49:32;98004.97;;;6.41;nan
113;BME280;45999;48.808;9.182;2023-04-07T01:52:01;98004.38;;;6.45;nan
113;BME280;45999;48.808;9.182;2023-04-07T01:54:28;98005.41;;;6.44;nan
113;BME280;45999;48.808;9.182;2023-04-07T01:56:54;97999.06;;;6.39;nan
113;BME280;45999;48.808;9.182;2023-04-07T01:59:20;98003.16;;;6.41;nan
113;BME280;45999;48.808;9.182;2023-04-07T02:01:47;98000.69;;;6.40;nan
113;BME280;45999;48.808;9.182;2023-04-07T02:06:58;98005.13;;;6.33;nan
113;BME280;45999;48.808;9.182;2023-04-07T02:09:29;97998.25;;;6.38;nan
113;BME280;45999;48.808;9.182;2023-04-07T02:11:59;97997.44;;;6.38;nan
113;BME280;45999;48.808;9.182;2023-04-07T02:14:26;97996.44;;;6.39;nan
113;BME280;45999;48.808;9.182;2023-04-07T02:16:54;97992.72;;;6.33;nan
113;BME280;45999;48.808;9.182;2023-04-07T02:19:21;97984.84;;;6.40;nan
113;BME280;45999;48.808;9.182;2023-04-07T02:21:49;97986.09;;;6.44;nan
113;BME280;45999;48.808;9.182;2023-04-07T02:24:19;97983.28;;;6.45;nan
113;BME280;45999;48.808;9.182;2023-04-07T02:26:46;97984.88;;;6.46;nan
113;BME280;45999;48.808;9.182;2023-04-07T02:29:12;97976.94;;;6.40;nan
113;BME280;45999;48.808;9.182;2023-04-07T02:31:39;97974.94;;;6.42;nan
113;BME280;45999;48.808;9.182;2023-04-07T02:34:05;97979.22;;;6.49;nan
113;BME280;45999;48.808;9.182;2023-04-07T02:36:32;97979.22;;;6.49;nan
113;BME280;45999;48.808;9.182;2023-04-07T02:38:58;97973.75;;;6.51;nan
113;BME280;45999;48.808;9.182;2023-04-07T02:41:24;97976.19;;;6.52;nan
113;BME280;45999;48.808;9.182;2023-04-07T02:43:51;97967.63;;;6.44;nan
113;BME280;45999;48.808;9.182;2023-04-07T02:46:17;97964.41;;;6.48;nan
113;BME280;45999;48.808;9.182;2023-04-07T02:48:44;97957.06;;;6.44;nan
113;BME280;45999;48.808;9.182;2023-04-07T02:51:10;97957.28;;;6.49;nan
113;BME280;45999;48.808;9.182;2023-04-07T02:53:37;97960.06;;;6.41;nan
113;BME280;45999;48.808;9.182;2023-04-07T02:56:03;97952.16;;;6.41;nan
113;BME280;45999;48.808;9.182;2023-04-07T02:58:30;97952.63;;;6.51;nan
113;BME280;45999;48.808;9.182;2023-04-07T03:00:56;97956.47;;;6.55;nan
113;BME280;45999;48.808;9.182;2023-04-07T03:03:22;97950.75;;;6.45;nan
113;BME280;45999;48.808;9.182;2023-04-07T03:05:49;97943.66;;;6.45;nan
113;BME280;45999;48.808;9.182;2023-04-07T03:08:15;97944.22;;;6.41;nan
113;BME280;45999;48.808;9.182;2023-04-07T03:10:41;97945.28;;;6.46;nan
113;BME280;45999;48.808;9.182;2023-04-07T03:13:08;97943.66;;;6.45;nan
113;BME280;45999;48.808;9.182;2023-04-07T03:15:36;97943.66;;;6.45;nan
113;BME280;45999;48.808;9.182;2023-04-07T03:18:03;97936.75;;;6.44;nan
113;BME280;45999;48.808;9.182;2023-04-07T03:20:29;97940.59;;;6.42;nan
113;BME280;45999;48.808;9.182;2023-04-07T03:22:55;97939.41;;;6.44;nan
113;BME280;45999;48.808;9.182;2023-04-07T03:25:22;97941.06;;;6.52;nan
113;BME280;45999;48.808;9.182;2023-04-07T03:27:48;97941.47;;;6.55;nan
113;BME280;45999;48.808;9.182;2023-04-07T03:30:15;97934.75;;;6.53;nan
113;BME280;45999;48.808;9.182;2023-04-07T03:32:41;97935.34;;;6.48;nan
113;BME280;45999;48.808;9.182;2023-04-07T03:35:07;97932.50;;;6.50;nan
113;BME280;45999;48.808;9.182;2023-04-07T03:37:34;97925.41;;;6.50;nan
113;BME280;45999;48.808;9.182;2023-04-07T03:40:00;97927.84;;;6.52;nan
113;BME280;45999;48.808;9.182;2023-04-07T03:42:27;97927.66;;;6.53;nan
113;BME280;45999;48.808;9.182;2023-04-07T03:44:53;97926.47;;;6.62;nan
113;BME280;45999;48.808;9.182;2023-04-07T03:47:19;97927.06;;;6.58;nan
113;BME280;45999;48.808;9.182;2023-04-07T03:49:46;97926.25;;;6.57;nan
113;BME280;45999;48.808;9.182;2023-04-07T03:52:13;97928.09;;;6.63;nan
113;BME280;45999;48.808;9.182;2023-04-07T03:54:39;97923.19;;;6.60;nan
113;BME280;45999;48.808;9.182;2023-04-07T03:57:06;97922.59;;;6.58;nan
113;BME280;45999;48.808;9.182;2023-04-07T03:59:32;97916.09;;;6.61;nan
113;BME280;45999;48.808;9.182;2023-04-07T04:01:58;97920.75;;;6.59;nan
113;BME280;45999;48.808;9.182;2023-04-07T04:04:25;97910.19;;;6.59;nan
113;BME280;45999;48.808;9.182;2023-04-07T04:06:51;97911.22;;;6.58;nan
113;BME280;45999;48.808;9.182;2023-04-07T04:09:17;97911.22;;;6.58;nan
113;BME280;45999;48.808;9.182;2023-04-07T04:11:45;97910.59;;;6.56;nan
113;BME280;45999;48.808;9.182;2023-04-07T04:14:11;97920.34;;;6.55;nan
113;BME280;45999;48.808;9.182;2023-04-07T04:16:37;97911.84;;;6.60;nan
113;BME280;45999;48.808;9.182;2023-04-07T04:19:04;97910.63;;;6.62;nan
113;BME280;45999;48.808;9.182;2023-04-07T04:21:30;97909.59;;;6.63;nan
113;BME280;45999;48.808;9.182;2023-04-07T04:23:56;97910.63;;;6.62;nan
113;BME280;45999;48.808;9.182;2023-04-07T04:26:23;97907.16;;;6.62;nan
113;BME280;45999;48.808;9.182;2023-04-07T04:28:50;97904.13;;;6.65;nan
113;BME280;45999;48.808;9.182;2023-04-07T04:31:17;97906.56;;;6.60;nan
113;BME280;45999;48.808;9.182;2023-04-07T04:33:43;97901.66;;;6.57;nan
113;BME280;45999;48.808;9.182;2023-04-07T04:36:09;97899.41;;;6.54;nan
113;BME280;45999;48.808;9.182;2023-04-07T04:38:39;97900.59;;;6.51;nan
113;BME280;45999;48.808;9.182;2023-04-07T04:41:07;97899.22;;;6.55;nan
113;BME280;45999;48.808;9.182;2023-04-07T04:43:34;97897.59;;;6.54;nan
113;BME280;45999;48.808;9.182;2023-04-07T04:46:00;97904.88;;;6.52;nan
113;BME280;45999;48.808;9.182;2023-04-07T04:48:27;97908.53;;;6.51;nan
113;BME280;45999;48.808;9.182;2023-04-07T04:50:53;97910.75;;;6.48;nan
113;BME280;45999;48.808;9.182;2023-04-07T04:53:19;97909.38;;;6.52;nan
113;BME280;45999;48.808;9.182;2023-04-07T04:55:46;97908.53;;;6.51;nan
113;BME280;45999;48.808;9.182;2023-04-07T04:58:17;97900.41;;;6.53;nan
113;BME280;45999;48.808;9.182;2023-04-07T05:00:43;97903.25;;;6.51;nan
113;BME280;45999;48.808;9.182;2023-04-07T05:03:09;97903.25;;;6.51;nan
113;BME280;45999;48.808;9.182;2023-04-07T05:05:36;97905.50;;;6.54;nan
113;BME280;45999;48.808;9.182;2023-04-07T05:08:02;97913.63;;;6.53;nan
113;BME280;45999;48.808;9.182;2023-04-07T05:10:29;97909.38;;;6.52;nan
113;BME280;45999;48.808;9.182;2023-04-07T05:12:55;97912.19;;;6.50;nan
113;BME280;45999;48.808;9.182;2023-04-07T05:15:22;97905.88;;;6.45;nan
113;BME280;45999;48.808;9.182;2023-04-07T05:17:48;97910.13;;;6.46;nan
113;BME280;45999;48.808;9.182;2023-04-07T05:20:15;97910.94;;;6.46;nan
113;BME280;45999;48.808;9.182;2023-04-07T05:22:41;97915.84;;;6.49;nan
113;BME280;45999;48.808;9.182;2023-04-07T05:25:08;97909.56;;;6.50;nan
113;BME280;45999;48.808;9.182;2023-04-07T05:27:34;97918.91;;;6.53;nan
113;BME280;45999;48.808;9.182;2023-04-07T05:30:01;97915.22;;;6.47;nan
113;BME280;45999;48.808;9.182;2023-04-07T05:32:27;97916.06;;;6.54;nan
113;BME280;45999;48.808;9.182;2023-04-07T05:34:54;97908.38;;;6.59;nan
113;BME280;45999;48.808;9.182;2023-04-07T05:37:20;97915.28;;;6.60;nan
113;BME280;45999;48.808;9.182;2023-04-07T05:39:47;97911.66;;;6.68;nan
113;BME280;45999;48.808;9.182;2023-04-07T05:42:13;97913.88;;;6.64;nan
113;BME280;45999;48.808;9.182;2023-04-07T05:44:40;97912.28;;;6.70;nan
113;BME280;45999;48.808;9.182;2023-04-07T05:47:06;97911.88;;;6.79;nan
113;BME280;45999;48.808;9.182;2023-04-07T05:49:36;97909.88;;;6.81;nan
113;BME280;45999;48.808;9.182;2023-04-07T05:52:09;97906.41;;;6.81;nan
113;BME280;45999;48.808;9.182;2023-04-07T05:54:36;97909.88;;;6.81;nan
113;BME280;45999;48.808;9.182;2023-04-07T05:57:03;97915.78;;;6.90;nan
113;BME280;45999;48.808;9.182;2023-04-07T05:59:29;97918.22;;;6.91;nan
113;BME280;45999;48.808;9.182;2023-04-07T06:01:56;97923.31;;;6.93;nan
113;BME280;45999;48.808;9.182;2023-04-07T06:04:22;97918.63;;;6.95;nan
113;BME280;45999;48.808;9.182;2023-04-07T06:06:48;97915.59;;;6.91;nan
113;BME280;45999;48.808;9.182;2023-04-07T06:09:16;97915.81;;;6.96;nan
113;BME280;45999;48.808;9.182;2023-04-07T06:11:43;97918.66;;;7.01;nan
113;BME280;45999;48.808;9.182;2023-04-07T06:14:11;97921.72;;;7.05;nan
113;BME280;45999;48.808;9.182;2023-04-07T06:16:37;97920.72;;;7.06;nan
113;BME280;45999;48.808;9.182;2023-04-07T06:19:04;97918.47;;;7.09;nan
113;BME280;45999;48.808;9.182;2023-04-07T06:21:31;97926.81;;;7.13;nan
113;BME280;45999;48.808;9.182;2023-04-07T06:23:58;97928.06;;;7.17;nan
113;BME280;45999;48.808;9.182;2023-04-07T06:26:25;97925.00;;;7.20;nan
113;BME280;45999;48.808;9.182;2023-04-07T06:28:52;97929.69;;;7.24;nan
113;BME280;45999;48.808;9.182;2023-04-07T06:31:18;97925.63;;;7.28;nan
113;BME280;45999;48.808;9.182;2023-04-07T06:33:45;97924.81;;;7.34;nan
113;BME280;45999;48.808;9.182;2023-04-07T06:36:11;97927.47;;;7.34;nan
113;BME280;45999;48.808;9.182;2023-04-07T06:38:39;97926.28;;;7.37;nan
113;BME280;45999;48.808;9.182;2023-04-07T06:41:05;97932.34;;;7.37;nan
113;BME280;45999;48.808;9.182;2023-04-07T06:43:32;97924.81;;;7.41;nan
113;BME280;45999;48.808;9.182;2023-04-07T06:45:58;97926.25;;;7.43;nan
113;BME280;45999;48.808;9.182;2023-04-07T06:48:25;97923.59;;;7.43;nan
113;BME280;45999;48.808;9.182;2023-04-07T06:50:51;97924.03;;;7.53;nan
113;BME280;45999;48.808;9.182;2023-04-07T06:53:18;97927.91;;;7.51;nan
113;BME280;45999;48.808;9.182;2023-04-07T06:55:44;97922.63;;;7.57;nan
113;BME280;45999;48.808;9.182;2023-04-07T06:58:11;97920.56;;;7.59;nan
113;BME280;45999;48.808;9.182;2023-04-07T07:00:37;97925.88;;;7.66;nan
113;BME280;45999;48.808;9.182;2023-04-07T07:03:03;97925.25;;;7.90;nan
113;BME280;45999;48.808;9.182;2023-04-07T07:05:30;97923.44;;;7.77;nan
113;BME280;45999;48.808;9.182;2023-04-07T07:07:57;97918.72;;;7.73;nan
113;BME280;45999;48.808;9.182;2023-04-07T07:10:23;97918.97;;;7.71;nan
113;BME280;45999;48.808;9.182;2023-04-07T07:12:50;97922.41;;;7.72;nan
113;BME280;45999;48.808;9.182;2023-04-07T07:15:17;97915.28;;;7.72;nan
113;BME280;45999;48.808;9.182;2023-04-07T07:17:43;97926.66;;;7.79;nan
113;BME280;45999;48.808;9.182;2023-04-07T07:20:09;97916.50;;;7.83;nan
113;BME280;45999;48.808;9.182;2023-04-07T07:22:36;97917.50;;;7.88;nan
113;BME280;45999;48.808;9.182;2023-04-07T07:25:03;97925.44;;;7.88;nan
113;BME280;45999;48.808;9.182;2023-04-07T07:27:29;97919.16;;;7.83;nan
113;BME280;45999;48.808;9.182;2023-04-07T07:29:55;97916.28;;;7.91;nan
113;BME280;45999;48.808;9.182;2023-04-07T07:32:22;97922.19;;;7.93;nan
113;BME280;45999;48.808;9.182;2023-04-07T07:34:48;97925.88;;;7.98;nan
113;BME280;45999;48.808;9.182;2023-04-07T07:37:14;97920.97;;;8.02;nan
113;BME280;45999;48.808;9.182;2023-04-07T07:39:41;97927.47;;;7.99;nan
113;BME280;45999;48.808;9.182;2023-04-07T07:42:07;97929.94;;;8.01;nan
113;BME280;45999;48.808;9.182;2023-04-07T07:44:34;97939.88;;;8.05;nan
113;BME280;45999;48.808;9.182;2023-04-07T07:47:00;97933.75;;;8.18;nan
113;BME280;45999;48.808;9.182;2023-04-07T07:49:26;97928.69;;;8.10;nan
113;BME280;45999;48.808;9.182;2023-04-07T07:51:53;97941.31;;;7.95;nan
113;BME280;45999;48.808;9.182;2023-04-07T07:54:19;97936.44;;;7.98;nan
113;BME280;45999;48.808;9.182;2023-04-07T07:56:46;97937.03;;;8.07;nan
113;BME280;45999;48.808;9.182;2023-04-07T07:59:12;97930.91;;;8.26;nan
113;BME280;45999;48.808;9.182;2023-04-07T08:01:38;97931.88;;;8.51;nan
113;BME280;45999;48.808;9.182;2023-04-07T08:04:05;97923.00;;;8.83;nan
113;BME280;45999;48.808;9.182;2023-04-07T08:06:31;97930.50;;;8.86;nan
113;BME280;45999;48.808;9.182;2023-04-07T08:08:58;97935.28;;;9.15;nan
113;BME280;45999;48.808;9.182;2023-04-07T08:11:24;97935.13;;;9.41;nan
113;BME280;45999;48.808;9.182;2023-04-07T08:13:50;97934.75;;;9.62;nan
113;BME280;45999;48.808;9.182;2023-04-07T08:16:18;97934.97;;;9.60;nan
113;BME280;45999;48.808;9.182;2023-04-07T08:18:44;97938.91;;;9.76;nan
113;BME280;45999;48.808;9.182;2023-04-07T08:21:11;97944.22;;;10.07;nan
113;BME280;45999;48.808;9.182;2023-04-07T08:23:37;97943.78;;;10.10;nan
113;BME280;45999;48.808;9.182;2023-04-07T08:26:04;97945.91;;;9.95;nan
113;BME280;45999;48.808;9.182;2023-04-07T08:28:30;97954.53;;;9.66;nan
113;BME280;45999;48.808;9.182;2023-04-07T08:30:56;97952.75;;;9.60;nan
113;BME280;45999;48.808;9.182;2023-04-07T08:33:24;97946.19;;;9.31;nan
113;BME280;45999;48.808;9.182;2023-04-07T08:35:51;97949.00;;;9.36;nan
113;BME280;45999;48.808;9.182;2023-04-07T08:38:17;97953.56;;;9.85;nan
113;BME280;45999;48.808;9.182;2023-04-07T08:40:44;97951.28;;;9.64;nan
113;BME280;45999;48.808;9.182;2023-04-07T08:43:11;97953.00;;;9.52;nan
113;BME280;45999;48.808;9.182;2023-04-07T08:45:39;97946.47;;;9.48;nan
113;BME280;45999;48.808;9.182;2023-04-07T08:48:17;97949.53;;;10.00;nan
113;BME280;45999;48.808;9.182;2023-04-07T08:50:44;97946.88;;;10.07;nan
113;BME280;45999;48.808;9.182;2023-04-07T08:53:12;97953.88;;;10.19;nan
113;BME280;45999;48.808;9.182;2023-04-07T08:55:40;97953.63;;;10.27;nan
113;BME280;45999;48.808;9.182;2023-04-07T08:58:08;97948.22;;;10.16;nan
113;BME280;45999;48.808;9.182;2023-04-07T09:00:38;97951.47;;;9.93;nan
113;BME280;45999;48.808;9.182;2023-04-07T09:03:06;97947.06;;;10.05;nan
113;BME280;45999;48.808;9.182;2023-04-07T09:05:33;97947.00;;;10.54;nan
113;BME280;45999;48.808;9.182;2023-04-07T09:08:01;97952.94;;;10.14;nan
113;BME280;45999;48.808;9.182;2023-04-07T09:10:27;97954.88;;;10.25;nan
113;BME280;45999;48.808;9.182;2023-04-07T09:12:54;97950.03;;;10.58;nan
113;BME280;45999;48.808;9.182;2023-04-07T09:15:20;97960.00;;;10.80;nan
113;BME280;45999;48.808;9.182;2023-04-07T09:17:47;97961.13;;;10.73;nan
113;BME280;45999;48.808;9.182;2023-04-07T09:20:14;97959.94;;;10.87;nan
113;BME280;45999;48.808;9.182;2023-04-07T09:22:42;97956.97;;;10.95;nan
113;BME280;45999;48.808;9.182;2023-04-07T09:25:23;97952.81;;;10.81;nan
113;BME280;45999;48.808;9.182;2023-04-07T09:30:20;97950.63;;;10.78;nan
113;BME280;45999;48.808;9.182;2023-04-07T09:32:47;97948.94;;;10.83;nan
113;BME280;45999;48.808;9.182;2023-04-07T09:35:13;97952.88;;;10.20;nan
113;BME280;45999;48.808;9.182;2023-04-07T09:37:39;97958.19;;;10.20;nan
113;BME280;45999;48.808;9.182;2023-04-07T09:40:07;97956.44;;;10.68;nan
113;BME280;45999;48.808;9.182;2023-04-07T09:42:34;97958.72;;;11.01;nan
113;BME280;45999;48.808;9.182;2023-04-07T09:45:02;97950.59;;;11.14;nan
113;BME280;45999;48.808;9.182;2023-04-07T09:47:30;97953.81;;;11.75;nan
113;BME280;45999;48.808;9.182;2023-04-07T09:49:57;97949.66;;;11.79;nan
113;BME280;45999;48.808;9.182;2023-04-07T09:52:52;97954.31;;;11.54;nan
113;BME280;45999;48.808;9.182;2023-04-07T09:55:20;97952.94;;;11.52;nan
113;BME280;45999;48.808;9.182;2023-04-07T09:57:48;97954.06;;;11.85;nan
113;BME280;45999;48.808;9.182;2023-04-07T10:00:15;97955.59;;;11.93;nan
113;BME280;45999;48.808;9.182;2023-04-07T10:02:42;97950.59;;;11.44;nan
113;BME280;45999;48.808;9.182;2023-04-07T10:05:10;97957.75;;;11.73;nan
113;BME280;45999;48.808;9.182;2023-04-07T10:07:37;97959.47;;;11.67;nan
113;BME280;45999;48.808;9.182;2023-04-07T10:10:04;97952.69;;;11.53;nan
113;BME280;45999;48.808;9.182;2023-04-07T10:12:33;97960.75;;;11.76;nan
113;BME280;45999;48.808;9.182;2023-04-07T10:15:00;97948.97;;;11.72;nan
113;BME280;45999;48.808;9.182;2023-04-07T10:17:27;97950.69;;;11.37;nan
113;BME280;45999;48.808;9.182;2023-04-07T10:19:57;97948.84;;;11.49;nan
113;BME280;45999;48.808;9.182;2023-04-07T10:22:25;97950.84;;;11.54;nan
113;BME280;45999;48.808;9.182;2023-04-07T10:24:57;97952.50;;;11.37;nan
113;BME280;45999;48.808;9.182;2023-04-07T10:27:55;97952.84;;;11.10;nan
113;BME280;45999;48.808;9.182;2023-04-07T10:30:27;97953.84;;;10.98;nan
113;BME280;45999;48.808;9.182;2023-04-07T10:32:55;97954.97;;;11.38;nan
113;BME280;45999;48.808;9.182;2023-04-07T10:35:22;97954.41;;;11.77;nan
113;BME280;45999;48.808;9.182;2023-04-07T10:40:35;97953.94;;;11.80;nan
113;BME280;45999;48.808;9.182;2023-04-07T10:43:03;97951.63;;;11.72;nan
113;BME280;45999;48.808;9.182;2023-04-07T10:48:16;97945.94;;;11.39;nan
113;BME280;45999;48.808;9.182;2023-04-07T10:53:30;97944.72;;;12.29;nan
113;BME280;45999;48.808;9.182;2023-04-07T10:55:57;97933.91;;;12.70;nan
113;BME280;45999;48.808;9.182;2023-04-07T11:03:31;97952.03;;;12.33;nan
113;BME280;45999;48.808;9.182;2023-04-07T11:08:40;97953.75;;;12.51;nan
113;BME280;45999;48.808;9.182;2023-04-07T11:11:09;97952.72;;;12.40;nan
113;BME280;45999;48.808;9.182;2023-04-07T11:13:46;97956.41;;;12.05;nan
113;BME280;45999;48.808;9.182;2023-04-07T11:16:18;97960.31;;;11.79;nan
113;BME280;45999;48.808;9.182;2023-04-07T11:18:45;97948.50;;;11.75;nan
113;BME280;45999;48.808;9.182;2023-04-07T11:21:16;97950.16;;;11.99;nan
113;BME280;45999;48.808;9.182;2023-04-07T11:23:44;97951.41;;;11.85;nan
113;BME280;45999;48.808;9.182;2023-04-07T11:26:13;97955.34;;;11.83;nan
113;BME280;45999;48.808;9.182;2023-04-07T11:28:46;97951.66;;;11.54;nan
113;BME280;45999;48.808;9.182;2023-04-07T11:31:23;97948.47;;;11.64;nan
113;BME280;45999;48.808;9.182;2023-04-07T11:34:01;97956.00;;;11.37;nan
113;BME280;45999;48.808;9.182;2023-04-07T11:36:38;97958.25;;;11.22;nan
113;BME280;45999;48.808;9.182;2023-04-07T11:39:17;97962.84;;;11.15;nan
113;BME280;45999;48.808;9.182;2023-04-07T11:41:48;97960.72;;;10.87;nan
113;BME280;45999;48.808;9.182;2023-04-07T11:44:15;97973.53;;;10.79;nan
113;BME280;45999;48.808;9.182;2023-04-07T11:47:00;97967.22;;;10.91;nan
113;BME280;45999;48.808;9.182;2023-04-07T11:49:27;97975.00;;;10.93;nan
113;BME280;45999;48.808;9.182;2023-04-07T11:51:59;97978.41;;;11.00;nan
113;BME280;45999;48.808;9.182;2023-04-07T11:54:27;97983.25;;;11.03;nan
113;BME280;45999;48.808;9.182;2023-04-07T11:57:03;97986.16;;;10.83;nan
113;BME280;45999;48.808;9.182;2023-04-07T11:59:30;97986.25;;;10.77;nan
113;BME280;45999;48.808;9.182;2023-04-07T12:01:56;97987.03;;;10.59;nan
113;BME280;45999;48.808;9.182;2023-04-07T12:04:23;97995.28;;;10.51;nan
113;BME280;45999;48.808;9.182;2023-04-07T12:06:50;97995.34;;;10.27;nan
113;BME280;45999;48.808;9.182;2023-04-07T12:09:29;97995.88;;;10.11;nan
113;BME280;45999;48.808;9.182;2023-04-07T12:11:56;97999.31;;;9.87;nan
113;BME280;45999;48.808;9.182;2023-04-07T12:14:24;97990.66;;;9.67;nan
113;BME280;45999;48.808;9.182;2023-04-07T12:16:51;97989.44;;;9.63;nan
113;BME280;45999;48.808;9.182;2023-04-07T12:19:20;98001.03;;;9.75;nan
113;BME280;45999;48.808;9.182;2023-04-07T12:21:46;97994.97;;;9.68;nan
113;BME280;45999;48.808;9.182;2023-04-07T12:24:13;97995.97;;;9.67;nan
113;BME280;45999;48.808;9.182;2023-04-07T12:26:39;97995.28;;;9.78;nan
113;BME280;45999;48.808;9.182;2023-04-07T12:29:05;97997.72;;;9.79;nan
113;BME280;45999;48.808;9.182;2023-04-07T12:31:32;97987.06;;;9.86;nan
113;BME280;45999;48.808;9.182;2023-04-07T12:33:59;97986.78;;;9.94;nan
113;BME280;45999;48.808;9.182;2023-04-07T12:36:26;97989.16;;;10.02;nan
113;BME280;45999;48.808;9.182;2023-04-07T12:38:54;97989.84;;;10.22;nan
113;BME280;45999;48.808;9.182;2023-04-07T12:41:21;97991.47;;;10.23;nan
113;BME280;45999;48.808;9.182;2023-04-07T12:43:48;97998.47;;;10.17;nan
113;BME280;45999;48.808;9.182;2023-04-07T12:46:14;97998.56;;;10.29;nan
113;BME280;45999;48.808;9.182;2023-04-07T12:48:40;97988.28;;;10.57;nan
113;BME280;45999;48.808;9.182;2023-04-07T12:51:07;97991.06;;;10.44;nan
113;BME280;45999;48.808;9.182;2023-04-07T12:53:34;97993.00;;;10.37;nan
113;BME280;45999;48.808;9.182;2023-04-07T12:56:00;97986.69;;;10.31;nan
113;BME280;45999;48.808;9.182;2023-04-07T12:58:27;97991.78;;;10.33;nan
113;BME280;45999;48.808;9.182;2023-04-07T13:00:53;97988.88;;;10.41;nan
113;BME280;45999;48.808;9.182;2023-04-07T13:03:20;97986.94;;;10.48;nan
113;BME280;45999;48.808;9.182;2023-04-07T13:05:47;97977.06;;;10.55;nan
113;BME280;45999;48.808;9.182;2023-04-07T13:08:13;97985.47;;;10.52;nan
113;BME280;45999;48.808;9.182;2023-04-07T13:10:39;97990.06;;;10.81;nan
113;BME280;45999;48.808;9.182;2023-04-07T13:13:06;97997.06;;;10.57;nan
113;BME280;45999;48.808;9.182;2023-04-07T13:15:32;97991.31;;;10.60;nan
113;BME280;45999;48.808;9.182;2023-04-07T13:17:59;97996.13;;;10.70;nan
113;BME280;45999;48.808;9.182;2023-04-07T13:20:25;97998.72;;;10.76;nan
113;BME280;45999;48.808;9.182;2023-04-07T13:22:54;97999.47;;;10.83;nan
113;BME280;45999;48.808;9.182;2023-04-07T13:25:20;97993.03;;;10.73;nan
113;BME280;45999;48.808;9.182;2023-04-07T13:27:47;97999.19;;;10.49;nan
113;BME280;45999;48.808;9.182;2023-04-07T13:30:13;97999.94;;;10.56;nan
113;BME280;45999;48.808;9.182;2023-04-07T13:32:40;97996.03;;;10.58;nan
113;BME280;45999;48.808;9.182;2023-04-07T13:35:06;97991.16;;;10.73;nan
113;BME280;45999;48.808;9.182;2023-04-07T13:37:33;97996.88;;;10.59;nan
113;BME280;45999;48.808;9.182;2023-04-07T13:40:00;97984.56;;;10.58;nan
113;BME280;45999;48.808;9.182;2023-04-07T13:42:26;97992.56;;;10.58;nan
113;BME280;45999;48.808;9.182;2023-04-07T13:44:52;97984.81;;;10.56;nan
113;BME280;45999;48.808;9.182;2023-04-07T13:47:19;97991.41;;;10.54;nan
113;BME280;45999;48.808;9.182;2023-04-07T13:49:46;97985.19;;;10.60;nan
113;BME280;45999;48.808;9.182;2023-04-07T13:52:13;97988.44;;;10.62;nan
113;BME280;45999;48.808;9.182;2023-04-07T13:54:40;97985.84;;;10.73;nan
113;BME280;45999;48.808;9.182;2023-04-07T13:57:07;97986.66;;;10.74;nan
113;BME280;45999;48.808;9.182;2023-04-07T13:59:33;97981.28;;;10.80;nan
113;BME280;45999;48.808;9.182;2023-04-07T14:02:00;97982.06;;;10.81;nan
113;BME280;45999;48.808;9.182;2023-04-07T14:04:26;97977.66;;;10.75;nan
113;BME280;45999;48.808;9.182;2023-04-07T14:06:53;97976.84;;;10.74;nan
113;BME280;45999;48.808;9.182;2023-04-07T14:09:20;97982.25;;;10.86;nan
113;BME280;45999;48.808;9.182;2023-04-07T14:11:46;97975.34;;;10.96;nan
113;BME280;45999;48.808;9.182;2023-04-07T14:14:13;97987.22;;;11.12;nan
113;BME280;45999;48.808;9.182;2023-04-07T14:16:39;97979.03;;;11.13;nan
113;BME280;45999;48.808;9.182;2023-04-07T14:19:05;97983.78;;;11.12;nan
113;BME280;45999;48.808;9.182;2023-04-07T14:21:32;97976.72;;;11.17;nan
113;BME280;45999;48.808;9.182;2023-04-07T14:23:58;97993.66;;;11.04;nan
113;BME280;45999;48.808;9.182;2023-04-07T14:26:25;97987.09;;;11.07;nan
113;BME280;45999;48.808;9.182;2023-04-07T14:28:51;97982.97;;;10.93;nan